createdAt,value
2023-07-18T00:01:31.042Z,53.82
2023-07-18T00:06:40.161Z,53.86
2023-07-18T00:11:46.538Z,54.36
2023-07-18T00:16:50.645Z,54.87
2023-07-18T00:21:59.899Z,54.99
2023-07-18T00:27:06.072Z,53.87
2023-07-18T00:32:11.609Z,54.88
2023-07-18T00:37:18.673Z,54.95
2023-07-18T00:42:22.864Z,56.14
2023-07-18T00:47:27.296Z,56.54
2023-07-18T00:52:34.484Z,56.84
2023-07-18T00:57:39.660Z,56.62
2023-07-18T01:08:10.291Z,56.31
2023-07-18T01:13:15.525Z,57.07
2023-07-18T01:18:20.765Z,57.08
2023-07-18T01:23:27.069Z,56.95
2023-07-18T01:28:31.243Z,57.29
2023-07-18T01:33:35.469Z,57.75
2023-07-18T01:38:41.710Z,56.87
2023-07-18T01:43:45.954Z,57.65
2023-07-18T01:48:50.152Z,57.25
2023-07-18T01:53:56.388Z,57.47
2023-07-18T01:59:00.580Z,57.78
2023-07-18T02:04:04.756Z,57.45
2023-07-18T02:09:13.156Z,58.19
2023-07-18T02:14:21.543Z,59.15
2023-07-18T02:24:50.089Z,59.37
2023-07-18T02:29:53.358Z,60.36
2023-07-18T02:34:56.617Z,59.52
2023-07-18T02:45:22.447Z,59.65
2023-07-18T02:55:50.412Z,60.44
2023-07-18T03:00:54.004Z,59.27
2023-07-18T03:05:57.701Z,59.65
2023-07-18T03:21:46.029Z,61.16
2023-07-18T03:26:50.714Z,61.61
2023-07-18T03:31:54.050Z,62.18
2023-07-18T03:36:57.397Z,63.19
2023-07-18T03:42:04.295Z,62.88
2023-07-18T03:47:20.025Z,63.94
2023-07-18T03:52:25.834Z,63.80
2023-07-18T03:57:32.182Z,64.50
2023-07-18T04:07:57.676Z,64.84
2023-07-18T04:13:03.876Z,63.37
2023-07-18T04:18:08.182Z,63.29
2023-07-18T04:23:12.381Z,62.99
2023-07-18T04:28:18.514Z,63.64
2023-07-18T04:38:45.092Z,63.99
2023-07-18T04:43:51.235Z,64.33
2023-07-18T04:48:55.592Z,64.65
2023-07-18T04:54:00.345Z,64.94
2023-07-18T04:59:06.551Z,64.50
2023-07-18T05:04:10.809Z,65.00
2023-07-18T05:09:14.932Z,64.77
2023-07-18T05:14:22.213Z,64.99
2023-07-18T05:19:26.387Z,65.12
2023-07-18T05:24:30.761Z,65.21
2023-07-18T05:29:37.045Z,64.94
2023-07-18T05:34:41.387Z,64.70
2023-07-18T05:39:45.636Z,64.94
2023-07-18T05:44:53.837Z,64.72
2023-07-18T05:49:59.568Z,65.08
2023-07-18T05:55:03.818Z,64.93
2023-07-18T06:00:12.993Z,65.35
2023-07-18T06:05:17.175Z,64.68
2023-07-18T06:10:22.369Z,65.37
2023-07-18T06:15:29.573Z,64.44
2023-07-18T06:20:34.765Z,64.89
2023-07-18T06:25:38.981Z,65.60
2023-07-18T06:30:46.275Z,65.27
2023-07-18T06:35:56.468Z,64.84
2023-07-18T06:41:00.867Z,64.48
2023-07-18T06:46:08.068Z,64.65
2023-07-18T06:51:12.280Z,64.05
2023-07-18T06:56:16.522Z,64.39
2023-07-18T07:01:23.041Z,65.39
2023-07-18T07:06:28.149Z,64.92
2023-07-18T07:11:33.353Z,65.25
2023-07-18T07:16:39.911Z,65.11
2023-07-18T07:21:45.080Z,64.78
2023-07-18T07:26:50.276Z,64.18
2023-07-18T07:31:57.545Z,63.69
2023-07-18T07:37:01.749Z,63.26
2023-07-18T07:42:07.153Z,63.35
2023-07-18T07:47:14.320Z,62.57
2023-07-18T07:52:18.486Z,62.03
2023-07-18T07:57:22.847Z,62.90
2023-07-18T08:02:29.080Z,62.49
2023-07-18T08:07:35.269Z,62.92
2023-07-18T08:12:40.462Z,62.27
2023-07-18T08:17:47.705Z,62.14
2023-07-18T08:22:51.913Z,61.87
2023-07-18T08:27:57.053Z,61.70
2023-07-18T08:33:04.385Z,61.16
2023-07-18T08:38:10.634Z,60.68
2023-07-18T08:48:41.086Z,60.91
2023-07-18T08:53:45.366Z,60.79
2023-07-18T08:58:49.545Z,61.50
2023-07-18T09:03:54.874Z,61.32
2023-07-18T09:14:25.388Z,60.39
2023-07-18T09:25:01.198Z,59.37
2023-07-18T09:30:05.421Z,58.94
2023-07-18T09:40:33.359Z,58.02
2023-07-18T09:56:22.596Z,56.66
2023-07-18T10:01:27.592Z,56.25
2023-07-18T10:06:34.915Z,55.63
2023-07-18T10:17:34.470Z,55.30
2023-07-18T10:22:39.835Z,55.02
2023-07-18T10:27:45.001Z,54.78
2023-07-18T10:32:56.380Z,54.26
2023-07-18T10:38:07.665Z,53.46
2023-07-18T10:43:12.735Z,52.96
2023-07-18T10:48:17.510Z,52.57
2023-07-18T10:53:24.485Z,50.12
2023-07-18T10:58:27.796Z,47.66
2023-07-18T11:03:37.424Z,47.71
2023-07-18T11:08:47.153Z,46.41
2023-07-18T11:13:50.360Z,46.23
2023-07-18T11:24:16.147Z,44.62
2023-07-18T11:29:27.710Z,44.64
2023-07-18T11:34:31.386Z,44.54
2023-07-18T11:39:36.674Z,44.24
2023-07-18T11:44:45.945Z,44.99
2023-07-18T11:49:50.131Z,44.23
2023-07-18T11:54:56.569Z,42.01
2023-07-18T12:05:24.069Z,41.32
2023-07-18T12:10:33.781Z,37.91
2023-07-18T12:15:38.473Z,38.64
2023-07-18T12:20:42.503Z,38.00
2023-07-18T12:25:48.424Z,36.23
2023-07-18T12:30:51.744Z,35.47
2023-07-18T12:35:55.004Z,35.03
2023-07-18T12:40:59.725Z,35.54
2023-07-18T12:46:02.976Z,35.93
2023-07-18T12:51:06.350Z,35.50
2023-07-18T13:01:31.581Z,34.04
2023-07-18T13:06:35.002Z,34.12
2023-07-18T13:17:02.687Z,34.42
2023-07-18T13:22:06.463Z,33.65
2023-07-18T13:32:32.153Z,32.03
2023-07-18T13:43:01.211Z,32.58
2023-07-18T13:48:04.857Z,32.73
2023-07-18T13:53:08.201Z,31.28
2023-07-18T14:03:39.644Z,31.98
2023-07-18T14:14:05.670Z,31.62
2023-07-18T14:19:08.946Z,31.08
2023-07-18T14:24:12.179Z,31.28
2023-07-18T14:29:18.145Z,31.06
2023-07-18T14:34:21.602Z,30.76
2023-07-18T14:44:48.372Z,31.22
2023-07-18T14:49:52.058Z,31.01
2023-07-18T14:54:57.773Z,31.49
2023-07-18T15:00:03.914Z,32.15
2023-07-18T15:15:51.503Z,32.41
2023-07-18T15:20:54.894Z,32.77
2023-07-18T15:25:58.455Z,32.81
2023-07-18T15:31:03.342Z,34.42
2023-07-18T15:36:06.978Z,34.62
2023-07-18T15:41:10.314Z,35.36
2023-07-18T15:51:36.196Z,35.84
2023-07-18T15:56:41.039Z,36.25
2023-07-18T16:01:45.945Z,36.96
2023-07-18T16:06:49.405Z,37.96
2023-07-18T16:11:52.827Z,38.80
2023-07-18T16:17:00.072Z,39.10
2023-07-18T16:27:26.562Z,40.05
2023-07-18T16:32:33.961Z,41.02
2023-07-18T16:37:37.957Z,41.84
2023-07-18T16:42:41.908Z,42.48
2023-07-18T16:47:46.756Z,42.25
2023-07-18T16:52:50.079Z,43.15
2023-07-18T17:03:15.609Z,43.60
2023-07-18T17:08:18.873Z,43.67
2023-07-18T17:13:22.686Z,43.55
2023-07-18T17:18:27.363Z,43.73
2023-07-18T17:23:30.725Z,43.97
2023-07-18T17:28:33.813Z,44.00
2023-07-18T17:33:38.525Z,44.03
2023-07-18T17:38:42.187Z,44.10
2023-07-18T17:43:45.942Z,44.28
2023-07-18T17:48:50.627Z,44.10
2023-07-18T17:53:56.464Z,43.95
2023-07-18T17:59:00.031Z,44.27
2023-07-18T18:04:07.641Z,44.68
2023-07-18T18:09:11.252Z,45.02
2023-07-18T18:19:36.892Z,46.05
2023-07-18T18:24:40.234Z,46.05
2023-07-18T18:35:09.885Z,47.15
2023-07-18T18:40:13.865Z,47.33
2023-07-18T18:45:19.035Z,47.56
2023-07-18T18:50:23.867Z,47.44
2023-07-18T18:55:29.259Z,48.31
2023-07-18T19:00:34.036Z,47.82
2023-07-18T19:05:38.882Z,48.26
2023-07-18T19:10:52.536Z,48.18
2023-07-18T19:16:04.769Z,48.03
2023-07-18T19:21:09.638Z,48.50
2023-07-18T19:26:12.984Z,48.54
2023-07-18T19:31:16.389Z,49.23
2023-07-18T19:41:42.458Z,49.67
2023-07-18T19:46:45.830Z,50.17
2023-07-18T19:51:51.568Z,50.40
2023-07-18T19:56:55.682Z,50.45
2023-07-18T20:07:21.102Z,50.22
2023-07-18T20:12:24.606Z,50.37
2023-07-18T20:22:49.934Z,50.19
2023-07-18T20:27:53.341Z,50.22
2023-07-18T20:32:59.725Z,50.43
2023-07-18T20:38:04.897Z,50.67
2023-07-18T20:43:08.135Z,51.03
2023-07-18T20:48:11.508Z,51.23
2023-07-18T21:09:20.186Z,52.75
2023-07-18T21:14:24.300Z,52.90
2023-07-18T21:24:49.617Z,53.90
2023-07-18T21:29:55.895Z,53.94
2023-07-18T21:34:59.272Z,54.20
2023-07-18T21:40:04.266Z,54.60
2023-07-18T21:45:08.357Z,54.79
2023-07-18T21:50:11.479Z,56.26
2023-07-18T21:55:17.987Z,55.04
2023-07-18T22:00:23.253Z,55.22
2023-07-18T22:05:28.595Z,56.16
2023-07-18T22:10:34.782Z,55.93
2023-07-18T22:15:40.078Z,56.59
2023-07-18T22:26:14.278Z,57.06
2023-07-18T22:31:19.631Z,57.23
2023-07-18T22:36:24.517Z,58.16
2023-07-18T22:46:52.266Z,58.23
2023-07-18T22:51:56.411Z,57.24
2023-07-18T23:02:24.118Z,57.92
2023-07-18T23:07:29.271Z,57.92
2023-07-18T23:12:35.708Z,58.13
2023-07-18T23:17:40.563Z,59.48
2023-07-18T23:22:45.349Z,58.73
2023-07-18T23:27:51.808Z,58.14
2023-07-18T23:32:56.065Z,58.47
2023-07-18T23:48:47.158Z,59.33
2023-07-18T23:53:51.335Z,59.56
2023-07-18T23:58:57.550Z,59.26
